createdAt,value
2023-12-30T00:00:38.523Z,0.30
2023-12-30T00:03:06.617Z,0.73
2023-12-30T00:05:35.238Z,0.20
2023-12-30T00:08:03.490Z,0.30
2023-12-30T00:10:31.895Z,0.35
2023-12-30T00:13:03.664Z,0.40
2023-12-30T00:15:31.933Z,0.40
2023-12-30T00:18:00.172Z,0.20
2023-12-30T00:20:28.306Z,0.30
2023-12-30T00:22:56.492Z,0.30
2023-12-30T00:25:24.919Z,0.30
2023-12-30T00:27:54.260Z,0.32
2023-12-30T00:30:24.461Z,0.30
2023-12-30T00:32:52.619Z,0.28
2023-12-30T00:35:20.694Z,0.30
2023-12-30T00:37:48.792Z,0.30
2023-12-30T00:40:24.322Z,0.30
2023-12-30T00:42:54.912Z,0.30
2023-12-30T00:45:24.552Z,0.20
2023-12-30T00:47:53.540Z,0.30
2023-12-30T00:50:21.747Z,0.20
2023-12-30T00:52:49.671Z,0.30
2023-12-30T00:55:18.065Z,0.30
2023-12-30T00:57:46.395Z,0.20
2023-12-30T01:00:16.156Z,0.40
2023-12-30T01:02:45.435Z,0.30
2023-12-30T01:05:14.060Z,0.40
2023-12-30T01:07:42.036Z,0.20
2023-12-30T01:10:10.243Z,0.30
2023-12-30T01:12:38.080Z,0.38
2023-12-30T01:15:06.857Z,0.20
2023-12-30T01:17:35.096Z,0.30
2023-12-30T01:20:07.315Z,0.30
2023-12-30T01:22:36.411Z,0.30
2023-12-30T01:25:04.732Z,0.45
2023-12-30T01:27:32.554Z,0.30
2023-12-30T01:30:00.498Z,0.30
2023-12-30T01:32:29.929Z,0.30
2023-12-30T01:34:58.558Z,0.45
2023-12-30T01:37:28.463Z,0.45
2023-12-30T01:39:56.536Z,0.40
2023-12-30T01:42:24.548Z,0.32
2023-12-30T01:44:52.661Z,0.20
2023-12-30T01:47:21.229Z,0.35
2023-12-30T01:49:50.177Z,0.50
2023-12-30T01:52:18.626Z,0.57
2023-12-30T01:54:47.989Z,0.52
2023-12-30T01:57:16.012Z,0.50
2023-12-30T01:59:46.794Z,0.30
2023-12-30T02:02:15.128Z,0.40
2023-12-30T02:04:44.152Z,0.38
2023-12-30T02:07:12.756Z,0.40
2023-12-30T02:09:40.788Z,0.40
2023-12-30T02:12:11.582Z,0.32
2023-12-30T02:14:40.225Z,0.60
2023-12-30T02:17:08.056Z,0.35
2023-12-30T02:19:37.135Z,0.40
2023-12-30T02:22:05.442Z,0.30
2023-12-30T02:24:34.915Z,0.43
2023-12-30T02:27:03.237Z,0.45
2023-12-30T02:29:31.093Z,0.40
2023-12-30T02:31:59.115Z,0.40
2023-12-30T02:34:28.815Z,0.40
2023-12-30T02:36:57.217Z,0.50
2023-12-30T02:39:25.214Z,0.50
2023-12-30T02:41:54.803Z,0.47
2023-12-30T02:44:22.936Z,0.45
2023-12-30T02:46:50.896Z,0.70
2023-12-30T02:49:18.955Z,0.40
2023-12-30T02:51:46.956Z,0.65
2023-12-30T02:54:15.226Z,0.57
2023-12-30T02:56:43.101Z,0.40
2023-12-30T02:59:12.505Z,0.50
2023-12-30T03:01:40.736Z,0.40
2023-12-30T03:04:09.161Z,0.50
2023-12-30T03:06:37.723Z,0.50
2023-12-30T03:09:06.021Z,0.52
2023-12-30T03:11:34.042Z,0.60
2023-12-30T03:14:02.552Z,0.57
2023-12-30T03:16:32.837Z,0.70
2023-12-30T03:19:00.835Z,0.50
2023-12-30T03:21:29.080Z,0.70
2023-12-30T03:23:57.020Z,0.30
2023-12-30T03:26:25.029Z,0.80
2023-12-30T03:28:53.177Z,0.40
2023-12-30T03:31:24.859Z,0.50
2023-12-30T03:33:54.370Z,0.75
2023-12-30T03:36:22.577Z,0.40
2023-12-30T03:38:51.566Z,0.50
2023-12-30T03:41:19.792Z,0.85
2023-12-30T03:43:48.017Z,0.68
2023-12-30T03:46:16.024Z,0.50
2023-12-30T03:48:44.200Z,0.50
2023-12-30T03:51:13.589Z,0.50
2023-12-30T03:53:42.304Z,0.57
2023-12-30T03:56:13.355Z,0.40
2023-12-30T03:58:41.378Z,0.55
2023-12-30T04:01:09.982Z,0.67
2023-12-30T04:03:39.386Z,0.30
2023-12-30T04:06:07.608Z,0.60
2023-12-30T04:08:37.214Z,0.57
2023-12-30T04:11:05.292Z,0.93
2023-12-30T04:13:33.275Z,0.50
2023-12-30T04:16:01.235Z,0.50
2023-12-30T04:18:29.129Z,0.77
2023-12-30T04:20:57.160Z,0.95
2023-12-30T04:23:27.405Z,0.50
2023-12-30T04:25:57.100Z,0.60
2023-12-30T04:28:25.473Z,0.85
2023-12-30T04:30:53.990Z,1.75
2023-12-30T04:33:22.159Z,0.90
2023-12-30T04:35:50.488Z,1.13
2023-12-30T04:38:19.401Z,0.90
2023-12-30T04:40:47.676Z,0.77
2023-12-30T04:43:16.087Z,1.02
2023-12-30T04:45:43.986Z,0.88
2023-12-30T04:48:11.900Z,1.15
2023-12-30T04:50:39.955Z,1.70
2023-12-30T04:53:08.755Z,1.40
2023-12-30T04:55:37.596Z,1.08
2023-12-30T04:58:05.824Z,0.80
2023-12-30T05:00:35.702Z,0.95
2023-12-30T05:03:04.438Z,1.23
2023-12-30T05:05:32.871Z,0.90
2023-12-30T05:08:03.397Z,0.82
2023-12-30T05:10:32.061Z,0.95
2023-12-30T05:13:00.191Z,0.98
2023-12-30T05:15:28.228Z,0.80
2023-12-30T05:17:57.663Z,1.00
2023-12-30T05:20:25.810Z,1.00
2023-12-30T05:22:53.673Z,0.85
2023-12-30T05:25:21.863Z,0.85
2023-12-30T05:27:50.064Z,1.13
2023-12-30T05:30:18.091Z,1.10
2023-12-30T05:32:46.114Z,1.30
2023-12-30T05:35:15.767Z,1.25
2023-12-30T05:37:43.797Z,1.50
2023-12-30T05:40:13.143Z,1.13
2023-12-30T05:42:41.330Z,1.10
2023-12-30T05:45:10.304Z,1.17
2023-12-30T05:47:38.218Z,0.75
2023-12-30T05:50:07.499Z,1.23
2023-12-30T05:52:38.262Z,1.70
2023-12-30T05:55:07.534Z,1.20
2023-12-30T05:57:35.756Z,1.25
2023-12-30T06:00:04.449Z,1.08
2023-12-30T06:02:42.960Z,1.13
2023-12-30T06:05:11.215Z,1.23
2023-12-30T06:07:40.646Z,1.23
2023-12-30T06:10:09.908Z,1.25
2023-12-30T06:12:37.939Z,1.63
2023-12-30T06:15:07.396Z,1.50
2023-12-30T06:17:35.419Z,1.60
2023-12-30T06:20:05.743Z,1.10
2023-12-30T06:22:33.767Z,1.30
2023-12-30T06:25:04.880Z,2.67
2023-12-30T06:27:32.910Z,1.85
2023-12-30T06:30:01.337Z,1.50
2023-12-30T06:32:29.310Z,1.33
2023-12-30T06:34:57.208Z,1.20
2023-12-30T06:37:25.089Z,1.85
2023-12-30T06:39:53.325Z,1.40
2023-12-30T06:42:22.574Z,1.73
2023-12-30T06:44:50.405Z,1.67
2023-12-30T06:47:18.442Z,1.63
2023-12-30T06:49:46.354Z,1.40
2023-12-30T06:52:14.539Z,1.40
2023-12-30T06:54:42.733Z,1.37
2023-12-30T06:57:10.682Z,1.45
2023-12-30T06:59:40.155Z,1.40
2023-12-30T07:02:09.244Z,1.75
2023-12-30T07:04:38.143Z,1.20
2023-12-30T07:07:06.145Z,1.37
2023-12-30T07:09:34.383Z,1.77
2023-12-30T07:12:02.563Z,1.27
2023-12-30T07:14:35.245Z,1.25
2023-12-30T07:17:04.951Z,1.23
2023-12-30T07:19:32.994Z,1.43
2023-12-30T07:22:02.048Z,1.63
2023-12-30T07:24:30.287Z,1.20
2023-12-30T07:26:59.503Z,1.55
2023-12-30T07:29:28.090Z,1.60
2023-12-30T07:31:56.051Z,1.40
2023-12-30T07:34:25.544Z,1.30
2023-12-30T07:36:53.579Z,1.85
2023-12-30T07:39:21.485Z,1.70
2023-12-30T07:41:49.442Z,1.48
2023-12-30T07:44:17.421Z,1.50
2023-12-30T07:46:45.548Z,1.70
2023-12-30T07:49:14.728Z,1.80
2023-12-30T07:51:43.986Z,1.38
2023-12-30T07:54:12.151Z,2.10
2023-12-30T07:56:40.248Z,1.70
2023-12-30T07:59:08.054Z,1.65
2023-12-30T08:01:41.870Z,1.52
2023-12-30T08:04:09.862Z,1.80
2023-12-30T08:06:38.325Z,1.80
2023-12-30T08:09:07.486Z,1.70
2023-12-30T08:11:49.663Z,1.50
2023-12-30T08:14:22.932Z,1.92
2023-12-30T08:16:50.825Z,1.73
2023-12-30T08:19:18.810Z,2.03
2023-12-30T08:21:46.824Z,1.90
2023-12-30T08:24:17.895Z,1.95
2023-12-30T08:26:45.942Z,1.77
2023-12-30T08:29:15.067Z,1.88
2023-12-30T08:31:47.096Z,2.05
2023-12-30T08:34:16.241Z,2.87
2023-12-30T08:36:45.404Z,1.50
2023-12-30T08:39:13.974Z,1.30
2023-12-30T08:41:43.697Z,1.40
2023-12-30T08:44:11.508Z,1.67
2023-12-30T08:46:39.503Z,1.63
2023-12-30T08:49:09.904Z,1.20
2023-12-30T08:51:39.031Z,1.73
2023-12-30T08:54:06.801Z,1.60
2023-12-30T08:56:35.543Z,1.38
2023-12-30T08:59:05.288Z,1.50
2023-12-30T09:01:33.517Z,1.58
2023-12-30T09:04:01.913Z,1.70
2023-12-30T09:06:30.880Z,1.63
2023-12-30T09:08:58.694Z,1.60
2023-12-30T09:11:26.925Z,1.80
2023-12-30T09:13:55.724Z,1.35
2023-12-30T09:16:24.968Z,2.15
2023-12-30T09:18:53.442Z,1.60
2023-12-30T09:21:21.531Z,1.75
2023-12-30T09:23:49.432Z,1.83
2023-12-30T09:26:17.456Z,2.03
2023-12-30T09:28:45.434Z,2.40
2023-12-30T09:31:13.566Z,1.52
2023-12-30T09:33:42.851Z,1.80
2023-12-30T09:36:10.972Z,1.73
2023-12-30T09:38:39.036Z,1.55
2023-12-30T09:41:07.437Z,1.55
2023-12-30T09:43:37.308Z,1.50
2023-12-30T09:46:06.319Z,2.53
2023-12-30T09:48:37.213Z,1.57
2023-12-30T09:51:07.051Z,1.35
2023-12-30T09:53:35.287Z,1.70
2023-12-30T09:56:04.929Z,1.58
2023-12-30T09:58:34.677Z,1.85
2023-12-30T10:01:03.100Z,1.50
2023-12-30T10:03:31.988Z,1.67
2023-12-30T10:06:01.563Z,1.63
2023-12-30T10:08:32.097Z,1.35
2023-12-30T10:11:00.034Z,1.73
2023-12-30T10:13:28.481Z,1.50
2023-12-30T10:15:59.819Z,1.65
2023-12-30T10:18:28.116Z,1.75
2023-12-30T10:20:56.843Z,1.15
2023-12-30T10:23:25.447Z,1.90
2023-12-30T10:25:55.813Z,1.40
2023-12-30T10:28:24.380Z,1.70
2023-12-30T10:31:02.262Z,1.55
2023-12-30T10:33:31.370Z,1.60
2023-12-30T10:35:59.368Z,1.95
2023-12-30T10:38:28.337Z,1.60
2023-12-30T10:40:57.568Z,2.15
2023-12-30T10:43:25.985Z,1.30
2023-12-30T10:45:58.855Z,1.75
2023-12-30T10:48:31.341Z,1.90
2023-12-30T10:50:59.954Z,1.60
2023-12-30T10:53:30.513Z,1.58
2023-12-30T10:56:02.239Z,1.75
2023-12-30T10:58:35.534Z,1.98
2023-12-30T11:01:04.835Z,1.63
2023-12-30T11:03:34.627Z,1.40
2023-12-30T11:06:09.638Z,1.60
2023-12-30T11:08:37.854Z,1.65
2023-12-30T11:11:08.177Z,1.23
2023-12-30T11:13:36.956Z,1.85
2023-12-30T11:16:23.005Z,1.20
2023-12-30T11:18:52.276Z,1.60
2023-12-30T11:21:38.555Z,2.58
2023-12-30T11:24:08.569Z,1.40
2023-12-30T11:26:42.895Z,2.00
2023-12-30T11:29:14.491Z,1.67
2023-12-30T11:31:43.980Z,2.17
2023-12-30T11:34:12.100Z,1.98
2023-12-30T11:36:40.958Z,1.90
2023-12-30T11:39:09.322Z,1.85
2023-12-30T11:41:39.120Z,1.77
2023-12-30T11:44:08.319Z,1.75
2023-12-30T11:46:36.671Z,2.00
2023-12-30T11:49:04.719Z,1.92
2023-12-30T11:51:33.067Z,1.80
2023-12-30T11:54:05.214Z,1.93
2023-12-30T11:56:33.912Z,1.67
2023-12-30T11:59:03.454Z,1.92
2023-12-30T12:01:31.801Z,1.85
2023-12-30T12:04:00.287Z,1.80
2023-12-30T12:06:28.368Z,1.73
2023-12-30T12:08:56.166Z,1.90
2023-12-30T12:11:24.040Z,1.58
2023-12-30T12:13:57.845Z,1.25
2023-12-30T12:16:30.144Z,1.52
2023-12-30T12:19:00.865Z,1.70
2023-12-30T12:21:29.121Z,1.90
2023-12-30T12:23:57.040Z,2.05
2023-12-30T12:26:26.107Z,2.22
2023-12-30T12:28:54.480Z,1.70
2023-12-30T12:31:22.398Z,2.37
2023-12-30T12:33:52.433Z,2.03
2023-12-30T12:36:20.691Z,2.40
2023-12-30T12:38:49.084Z,2.85
2023-12-30T12:41:17.143Z,2.17
2023-12-30T12:43:45.202Z,2.60
2023-12-30T12:46:18.020Z,2.30
2023-12-30T12:48:46.061Z,2.33
2023-12-30T12:51:15.613Z,1.90
2023-12-30T12:53:43.674Z,2.30
2023-12-30T12:56:12.652Z,2.33
2023-12-30T12:58:41.740Z,2.25
2023-12-30T13:01:10.102Z,2.47
2023-12-30T13:03:39.120Z,2.53
2023-12-30T13:06:14.009Z,2.17
2023-12-30T13:08:43.639Z,2.40
2023-12-30T13:11:11.630Z,2.67
2023-12-30T13:13:39.588Z,3.08
2023-12-30T13:16:08.378Z,2.40
2023-12-30T13:18:36.429Z,2.65
2023-12-30T13:21:07.450Z,2.60
2023-12-30T13:23:35.483Z,2.20
2023-12-30T13:26:05.881Z,3.42
2023-12-30T13:28:35.302Z,2.47
2023-12-30T13:31:03.426Z,2.28
2023-12-30T13:33:34.097Z,2.60
2023-12-30T13:36:05.433Z,2.50
2023-12-30T13:38:40.594Z,2.53
2023-12-30T13:41:10.001Z,2.75
2023-12-30T13:43:39.416Z,2.50
2023-12-30T13:46:28.234Z,2.90
2023-12-30T13:49:32.593Z,1.80
2023-12-30T13:52:02.474Z,2.40
2023-12-30T13:54:30.652Z,2.35
2023-12-30T13:57:12.586Z,2.50
2023-12-30T13:59:44.199Z,2.80
2023-12-30T14:02:12.228Z,2.70
2023-12-30T14:04:41.604Z,2.25
2023-12-30T14:07:16.324Z,2.35
2023-12-30T14:09:51.023Z,2.25
2023-12-30T14:12:21.942Z,2.20
2023-12-30T14:14:54.670Z,3.53
2023-12-30T14:17:25.515Z,2.58
2023-12-30T14:19:53.565Z,2.13
2023-12-30T14:22:21.608Z,2.50
2023-12-30T14:24:49.590Z,2.67
2023-12-30T14:27:17.967Z,2.75
2023-12-30T14:29:49.795Z,2.88
2023-12-30T14:32:17.646Z,2.53
2023-12-30T14:34:45.524Z,2.65
2023-12-30T14:37:14.065Z,2.20
2023-12-30T14:39:42.092Z,2.78
2023-12-30T14:42:10.049Z,2.63
2023-12-30T14:44:38.233Z,2.97
2023-12-30T14:47:07.742Z,2.33
2023-12-30T14:49:35.715Z,2.23
2023-12-30T14:52:04.127Z,2.63
2023-12-30T14:54:32.134Z,2.10
2023-12-30T14:57:00.313Z,2.25
2023-12-30T14:59:29.181Z,2.47
2023-12-30T15:01:58.354Z,2.40
2023-12-30T15:04:27.878Z,1.60
2023-12-30T15:06:56.550Z,2.22
2023-12-30T15:09:24.691Z,2.17
2023-12-30T15:11:52.570Z,2.40
2023-12-30T15:14:20.420Z,2.10
2023-12-30T15:16:48.461Z,2.60
2023-12-30T15:19:16.462Z,2.53
2023-12-30T15:21:46.002Z,2.28
2023-12-30T15:24:16.575Z,3.13
2023-12-30T15:26:44.359Z,2.20
2023-12-30T15:29:12.295Z,2.03
2023-12-30T15:31:44.017Z,1.85
2023-12-30T15:34:13.291Z,2.47
2023-12-30T15:36:42.567Z,1.70
2023-12-30T15:39:12.485Z,2.20
2023-12-30T15:41:40.436Z,1.85
2023-12-30T15:44:08.487Z,2.40
2023-12-30T15:46:38.253Z,2.35
2023-12-30T15:49:06.742Z,1.63
2023-12-30T15:51:35.318Z,2.00
2023-12-30T15:54:03.179Z,2.00
2023-12-30T15:56:33.669Z,2.67
2023-12-30T15:59:01.744Z,2.95
2023-12-30T16:01:29.900Z,2.10
2023-12-30T16:03:58.256Z,2.30
2023-12-30T16:06:26.315Z,2.42
2023-12-30T16:08:55.247Z,3.20
2023-12-30T16:11:23.848Z,3.00
2023-12-30T16:13:53.234Z,4.45
2023-12-30T16:16:21.414Z,2.70
2023-12-30T16:18:50.037Z,2.03
2023-12-30T16:21:18.570Z,2.53
2023-12-30T16:23:46.539Z,2.25
2023-12-30T16:26:15.414Z,2.40
2023-12-30T16:28:44.877Z,2.83
2023-12-30T16:31:14.438Z,3.65
2023-12-30T16:33:42.688Z,4.63
2023-12-30T16:36:12.087Z,3.00
2023-12-30T16:38:40.277Z,2.83
2023-12-30T16:41:08.618Z,2.43
2023-12-30T16:43:37.840Z,2.10
2023-12-30T16:46:06.265Z,3.25
2023-12-30T16:48:36.023Z,2.50
2023-12-30T16:51:04.598Z,2.08
2023-12-30T16:53:32.842Z,2.10
2023-12-30T16:56:01.478Z,3.00
2023-12-30T16:58:31.789Z,2.80
2023-12-30T17:01:00.981Z,2.30
2023-12-30T17:03:29.409Z,3.03
2023-12-30T17:05:58.783Z,2.23
2023-12-30T17:08:26.917Z,2.30
2023-12-30T17:10:55.005Z,2.28
2023-12-30T17:13:31.172Z,2.38
2023-12-30T17:16:03.024Z,3.58
2023-12-30T17:18:31.049Z,2.20
2023-12-30T17:21:00.724Z,2.95
2023-12-30T17:23:28.775Z,2.42
2023-12-30T17:25:57.158Z,2.10
2023-12-30T17:28:25.149Z,2.85
2023-12-30T17:30:53.201Z,2.13
2023-12-30T17:33:21.413Z,2.88
2023-12-30T17:35:49.353Z,2.35
2023-12-30T17:38:19.178Z,2.22
2023-12-30T17:40:47.185Z,2.55
2023-12-30T17:43:15.023Z,2.40
2023-12-30T17:45:42.939Z,2.15
2023-12-30T17:48:11.969Z,3.08
2023-12-30T17:50:39.931Z,2.92
2023-12-30T17:53:08.382Z,11.85
2023-12-30T17:55:37.713Z,16.10
2023-12-30T17:58:06.210Z,4.95
2023-12-30T18:00:36.848Z,4.38
2023-12-30T18:03:06.025Z,3.50
2023-12-30T18:05:34.256Z,2.25
2023-12-30T18:08:02.229Z,2.20
2023-12-30T18:10:30.266Z,2.40
2023-12-30T18:12:59.649Z,2.20
2023-12-30T18:15:27.996Z,1.88
2023-12-30T18:17:56.083Z,2.08
2023-12-30T18:20:25.618Z,1.90
2023-12-30T18:22:53.711Z,1.70
2023-12-30T18:25:21.914Z,1.92
2023-12-30T18:27:50.048Z,1.98
2023-12-30T18:30:19.878Z,1.73
2023-12-30T18:32:48.276Z,1.90
2023-12-30T18:35:16.422Z,1.73
2023-12-30T18:37:44.579Z,1.70
2023-12-30T18:40:14.658Z,1.83
2023-12-30T18:42:43.462Z,1.55
2023-12-30T18:45:12.430Z,2.03
2023-12-30T18:47:41.718Z,1.40
2023-12-30T18:50:09.985Z,1.55
2023-12-30T18:52:37.062Z,1.20
2023-12-30T18:55:06.579Z,1.83
2023-12-30T18:57:33.536Z,4.10
2023-12-30T19:00:01.600Z,1.73
2023-12-30T19:02:30.168Z,1.73
2023-12-30T19:04:59.565Z,1.23
2023-12-30T19:07:27.564Z,1.40
2023-12-30T19:09:55.623Z,1.30
2023-12-30T19:12:24.622Z,2.15
2023-12-30T19:14:54.734Z,1.40
2023-12-30T19:17:25.681Z,1.60
2023-12-30T19:19:54.544Z,1.20
2023-12-30T19:22:24.393Z,1.50
2023-12-30T19:24:52.823Z,1.27
2023-12-30T19:27:20.821Z,1.40
2023-12-30T19:29:48.665Z,1.48
2023-12-30T19:32:17.168Z,1.50
2023-12-30T19:34:45.154Z,1.70
2023-12-30T19:37:13.828Z,1.30
2023-12-30T19:39:43.355Z,1.50
2023-12-30T19:42:11.357Z,1.50
2023-12-30T19:44:39.532Z,1.60
2023-12-30T19:47:07.894Z,1.63
2023-12-30T19:49:36.002Z,1.40
2023-12-30T19:52:04.512Z,1.42
2023-12-30T19:54:32.424Z,1.45
2023-12-30T19:57:01.704Z,1.60
2023-12-30T19:59:30.132Z,1.33
2023-12-30T20:01:57.932Z,1.63
2023-12-30T20:04:26.065Z,1.45
2023-12-30T20:06:54.541Z,1.33
2023-12-30T20:09:22.442Z,1.30
2023-12-30T20:11:50.968Z,1.63
2023-12-30T20:14:20.671Z,1.20
2023-12-30T20:16:48.818Z,1.85
2023-12-30T20:19:16.960Z,1.40
2023-12-30T20:21:44.990Z,1.20
2023-12-30T20:24:13.087Z,1.70
2023-12-30T20:26:42.855Z,1.40
2023-12-30T20:29:10.864Z,1.30
2023-12-30T20:31:40.205Z,1.10
2023-12-30T20:34:08.493Z,1.38
2023-12-30T20:36:45.212Z,0.87
2023-12-30T20:39:35.210Z,0.98
2023-12-30T20:43:01.042Z,1.48
2023-12-30T20:46:08.402Z,1.23
2023-12-30T20:49:21.132Z,1.10
2023-12-30T20:52:16.835Z,1.30
2023-12-30T20:55:30.123Z,0.95
2023-12-30T21:25:12.147Z,1.20
2023-12-30T21:27:47.384Z,1.05
2023-12-30T21:30:16.097Z,1.23
2023-12-30T21:32:45.425Z,1.10
2023-12-30T21:35:14.588Z,1.13
2023-12-30T21:37:47.859Z,1.00
2023-12-30T21:40:18.673Z,1.13
2023-12-30T21:42:47.009Z,1.17
2023-12-30T21:45:14.949Z,0.93
2023-12-30T21:47:43.115Z,1.08
2023-12-30T21:50:11.597Z,1.00
2023-12-30T21:52:39.804Z,1.00
2023-12-30T21:55:08.316Z,1.00
2023-12-30T21:57:37.613Z,1.13
2023-12-30T22:00:05.913Z,1.00
2023-12-30T22:02:35.043Z,0.82
2023-12-30T22:05:03.109Z,0.90
2023-12-30T22:07:31.890Z,0.80
2023-12-30T22:10:00.429Z,0.80
2023-12-30T22:12:32.307Z,1.17
2023-12-30T22:15:01.493Z,1.10
2023-12-30T22:17:29.521Z,1.05
2023-12-30T22:19:57.477Z,0.80
2023-12-30T22:22:25.426Z,0.93
2023-12-30T22:24:53.455Z,0.60
2023-12-30T22:27:21.527Z,0.80
2023-12-30T22:29:49.501Z,0.80
2023-12-30T22:32:18.698Z,0.67
2023-12-30T22:34:46.493Z,0.90
2023-12-30T22:37:14.416Z,1.20
2023-12-30T22:39:42.230Z,0.90
2023-12-30T22:42:09.983Z,1.20
2023-12-30T22:44:38.925Z,1.17
2023-12-30T22:47:06.947Z,0.93
2023-12-30T22:49:46.792Z,1.08
2023-12-30T22:52:26.263Z,1.10
2023-12-30T22:54:54.344Z,0.90
2023-12-30T22:57:22.236Z,1.07
2023-12-30T22:59:50.025Z,0.98
2023-12-30T23:02:18.903Z,0.85
2023-12-30T23:04:48.271Z,0.98
2023-12-30T23:07:17.500Z,1.08
2023-12-30T23:09:45.997Z,0.73
2023-12-30T23:12:15.266Z,1.52
2023-12-30T23:14:43.276Z,1.05
2023-12-30T23:17:12.838Z,0.88
2023-12-30T23:19:40.681Z,1.00
2023-12-30T23:22:09.920Z,0.70
2023-12-30T23:24:37.903Z,0.85
2023-12-30T23:27:06.257Z,1.13
2023-12-30T23:29:34.267Z,1.35
2023-12-30T23:32:02.105Z,1.05
2023-12-30T23:34:39.291Z,0.83
2023-12-30T23:37:15.295Z,0.70
2023-12-30T23:39:45.552Z,1.20
2023-12-30T23:42:13.460Z,0.90
2023-12-30T23:44:41.192Z,1.10
2023-12-30T23:47:08.847Z,0.90
2023-12-30T23:49:36.794Z,0.95
2023-12-30T23:52:04.927Z,0.93
2023-12-30T23:54:34.101Z,1.10
2023-12-30T23:57:01.952Z,1.00
2023-12-30T23:59:30.830Z,0.97
